Annandale On Hudson, NY (12504)

8:55 AM EST on February 23, 2017 (GMT -0500)
Saugerties | | Change Station

Elev 136 ft 42.04 °N, 73.95 °W | Updated 5 minutes ago

Clear
Clear
46.2 °F
Feels Like 46 °F
N
1.0
Wind Variable Wind from SSE
Gusts 4.0 mph

Today
High -- | Low -- °F
--% Chance of Precip.
Yesterday
High -- | Low -- °F
Precip. -- in
Pressure 29.87 in
Visibility 7.0 miles
Clouds Clear
Windchill 46 °F
Dew Point 41 °F
Humidity 83%
Rainfall 0.00 in
Snow Depth Not available.
6:39 AM 5:38 PM
Waning Crescent, 10% visible
METAR KPOU 231253Z 00000KT 7SM CLR 03/02 A2988 RMK AO2 SLP115 T00280017
Pressure 29.87 in
Visibility 7.0 miles
Clouds Clear
Windchill 46 °F
Dew Point 41 °F
Humidity 83%
Rainfall 0.00 in
Snow Depth Not available.
6:39 AM 5:38 PM
Waning Crescent, 10% visible
METAR KPOU 231253Z 00000KT 7SM CLR 03/02 A2988 RMK AO2 SLP115 T00280017

Get Your Daily Forecast Email!

Thanks for signing up!

Be on the lookout for a verification email in your inbox.

You'll start receiving the daily forecast at 8 AM.

×

10-Day Weather Forecast

Almanac

Astronomy

Feb. 23, 2017 Rise Set
Actual Time
Civil Twilight
Nautical Twilight
Astronomical Twilight
Moon
Length of Visible Light
Length of Day
Tomorrow will be .
, % of the Moon is Illuminated

Today's Extremes

State Highs State Lows

Community

WunderPhotos

Upload Photos

1,962,540 photos uploaded!

WunderBlog® & News

Nearby

Air Quality

  Air Quality AQ Index Pollutant
Not available.

Snow Depth

Station Depth Elevation

Earthquake Activity

City Distance Mag. Time & Date
Minimum magnitude displayed is 2.5.

Coastal Water Temperatures

Place Temperature

Stations

Nearby Weather Stations

Station Location Temp. Windchill Dew Point Humidity Wind Precip. Elev Updated Type
                   

Watches & Warnings

There are currently no watches in effect.